createdAt,value
2019-01-21T00:01:09.891Z,5.84
2019-01-21T00:03:39.272Z,5.85
2019-01-21T00:06:08.610Z,5.85
2019-01-21T00:08:37.969Z,5.84
2019-01-21T00:11:07.311Z,5.84
2019-01-21T00:13:36.820Z,5.83
2019-01-21T00:16:06.325Z,5.83
2019-01-21T00:18:36.475Z,5.81
2019-01-21T00:21:05.834Z,5.81
2019-01-21T00:23:35.182Z,5.80
2019-01-21T00:26:04.658Z,5.78
2019-01-21T00:28:34.468Z,5.78
2019-01-21T00:31:03.970Z,5.78
2019-01-21T00:33:33.338Z,5.77
2019-01-21T00:36:02.724Z,5.75
2019-01-21T00:38:32.097Z,5.74
2019-01-21T00:41:01.456Z,5.73
2019-01-21T00:43:32.866Z,5.72
2019-01-21T00:46:04.561Z,5.72
2019-01-21T00:48:33.957Z,5.71
2019-01-21T00:51:03.300Z,5.69
2019-01-21T00:53:32.651Z,5.68
2019-01-21T00:56:02.046Z,5.65
2019-01-21T00:58:31.428Z,5.64
2019-01-21T01:01:02.969Z,5.62
2019-01-21T01:03:32.307Z,5.60
2019-01-21T01:06:01.665Z,5.60
2019-01-21T01:08:33.764Z,5.59
2019-01-21T01:11:03.147Z,5.60
2019-01-21T01:13:32.526Z,5.60
2019-01-21T01:16:01.892Z,5.58
2019-01-21T01:18:31.257Z,5.57
2019-01-21T01:21:00.623Z,5.57
2019-01-21T01:23:29.991Z,5.57
2019-01-21T01:25:59.351Z,5.58
2019-01-21T01:28:29.600Z,5.58
2019-01-21T01:30:58.992Z,5.58
2019-01-21T01:33:28.333Z,5.57
2019-01-21T01:35:57.721Z,5.57
2019-01-21T01:38:27.058Z,5.56
2019-01-21T01:40:56.432Z,5.57
2019-01-21T01:43:25.806Z,5.57
2019-01-21T01:45:55.192Z,5.57
2019-01-21T01:48:24.567Z,5.57
2019-01-21T01:50:53.914Z,5.56
2019-01-21T01:53:23.288Z,5.54
2019-01-21T01:55:52.729Z,5.53
2019-01-21T01:58:22.109Z,5.51
2019-01-21T02:00:51.474Z,5.50
2019-01-21T02:03:23.138Z,5.50
2019-01-21T02:05:52.483Z,5.49
2019-01-21T02:08:21.866Z,5.48
2019-01-21T02:10:51.209Z,5.48
2019-01-21T02:13:20.550Z,5.47
2019-01-21T02:15:49.941Z,5.47
2019-01-21T02:18:19.299Z,5.47
2019-01-21T02:20:51.207Z,5.45
2019-01-21T02:23:22.408Z,5.43
2019-01-21T02:25:58.620Z,5.41
2019-01-21T02:28:40.960Z,5.38
2019-01-21T02:31:45.861Z,5.35
2019-01-21T02:34:42.224Z,5.32
2019-01-21T02:37:46.797Z,5.29
2019-01-21T02:41:09.235Z,5.25
2019-01-21T02:44:34.834Z,5.22
2019-01-21T02:47:50.439Z,5.19
2019-01-21T02:51:01.657Z,5.13
2019-01-21T02:53:54.783Z,5.07
2019-01-21T02:57:20.257Z,5.03
2019-01-21T03:00:02.046Z,5.00
2019-01-21T03:03:15.258Z,4.95
2019-01-21T03:06:22.648Z,4.91
2019-01-21T03:09:30.605Z,4.88
2019-01-21T03:12:39.360Z,4.81
2019-01-21T03:15:46.043Z,4.78
2019-01-21T03:18:55.967Z,4.74
2019-01-21T03:22:21.179Z,4.70
2019-01-21T03:25:26.230Z,4.67
2019-01-21T03:28:45.407Z,4.61
2019-01-21T03:31:47.317Z,4.57
2019-01-21T03:34:54.752Z,4.53
2019-01-21T03:37:55.052Z,4.49
2019-01-21T03:40:37.336Z,4.43
2019-01-21T03:43:44.749Z,4.39
2019-01-21T03:46:36.496Z,4.35
2019-01-21T03:49:15.780Z,4.30
2019-01-21T03:52:25.041Z,4.27
2019-01-21T03:54:59.656Z,4.25
2019-01-21T03:57:53.248Z,4.21
2019-01-21T04:01:05.708Z,4.19
2019-01-21T04:04:34.164Z,4.18
2019-01-21T04:07:31.701Z,4.13
2019-01-21T04:10:29.194Z,4.10
2019-01-21T04:13:25.127Z,4.07
2019-01-21T04:16:47.302Z,4.04
2019-01-21T04:19:32.166Z,4.03
2019-01-21T04:22:42.818Z,4.01
2019-01-21T04:25:48.204Z,3.99
2019-01-21T04:28:48.887Z,3.98
2019-01-21T04:31:50.254Z,3.97
2019-01-21T04:35:08.628Z,3.96
2019-01-21T04:37:55.041Z,3.93
2019-01-21T04:40:51.343Z,3.89
2019-01-21T04:44:16.857Z,3.87
2019-01-21T04:47:33.124Z,3.85
2019-01-21T04:50:42.691Z,3.81
2019-01-21T04:54:03.163Z,3.79
2019-01-21T04:57:13.320Z,3.77
2019-01-21T05:00:10.278Z,3.78
2019-01-21T05:03:33.494Z,3.77
2019-01-21T05:06:38.212Z,3.77
2019-01-21T05:09:31.763Z,3.75
2019-01-21T05:12:36.622Z,3.73
2019-01-21T05:15:36.235Z,3.71
2019-01-21T05:18:42.359Z,3.67
2019-01-21T05:22:11.045Z,3.63
2019-01-21T05:25:24.237Z,3.60
2019-01-21T05:28:15.284Z,3.57
2019-01-21T05:31:16.587Z,3.55
2019-01-21T05:34:06.068Z,3.53
2019-01-21T05:37:25.741Z,3.51
2019-01-21T05:40:23.394Z,3.48
2019-01-21T05:43:38.004Z,3.45
2019-01-21T05:46:50.337Z,3.44
2019-01-21T05:49:55.380Z,3.41
2019-01-21T05:52:47.615Z,3.38
2019-01-21T05:56:19.017Z,3.37
2019-01-21T05:59:33.836Z,3.35
2019-01-21T06:02:49.950Z,3.34
2019-01-21T06:05:56.951Z,3.31
2019-01-21T06:09:01.574Z,3.26
2019-01-21T06:11:56.235Z,3.21
2019-01-21T06:15:02.244Z,3.20
2019-01-21T06:18:08.155Z,3.19
2019-01-21T06:21:17.180Z,3.18
2019-01-21T06:24:27.322Z,3.17
2019-01-21T06:27:36.688Z,3.17
2019-01-21T06:30:28.280Z,3.19
2019-01-21T06:33:41.215Z,3.21
2019-01-21T06:36:45.993Z,3.22
2019-01-21T06:39:56.539Z,3.23
2019-01-21T06:42:58.179Z,3.24
2019-01-21T06:46:11.448Z,3.26
2019-01-21T06:49:07.169Z,3.29
2019-01-21T06:52:29.353Z,3.32
2019-01-21T06:55:35.048Z,3.35
2019-01-21T06:58:36.549Z,3.39
2019-01-21T07:01:48.958Z,3.41
2019-01-21T07:05:16.424Z,3.43
2019-01-21T07:08:31.261Z,3.42
2019-01-21T07:11:43.527Z,3.40
2019-01-21T07:15:17.883Z,3.38
2019-01-21T07:18:30.335Z,3.36
2019-01-21T07:21:45.439Z,3.33
2019-01-21T07:24:46.154Z,3.29
2019-01-21T07:27:48.123Z,3.27
2019-01-21T07:30:34.858Z,3.23
2019-01-21T07:33:38.610Z,3.21
2019-01-21T07:37:00.714Z,3.19
2019-01-21T07:40:01.755Z,3.18
2019-01-21T07:43:01.026Z,3.15
2019-01-21T07:46:04.884Z,3.14
2019-01-21T07:49:10.777Z,3.14
2019-01-21T07:52:22.729Z,3.13
2019-01-21T07:55:27.225Z,3.12
2019-01-21T07:58:49.559Z,3.10
2019-01-21T08:01:46.795Z,3.09
2019-01-21T08:04:57.936Z,3.08
2019-01-21T08:07:57.666Z,3.08
2019-01-21T08:11:08.850Z,3.07
2019-01-21T08:13:59.788Z,3.07
2019-01-21T08:17:07.237Z,3.05
2019-01-21T08:20:20.543Z,3.07
2019-01-21T08:23:33.766Z,3.09
2019-01-21T08:26:58.956Z,3.12
2019-01-21T08:29:57.429Z,3.16
2019-01-21T08:33:05.129Z,3.20
2019-01-21T08:35:50.819Z,3.23
2019-01-21T08:38:55.799Z,3.25
2019-01-21T08:41:58.822Z,3.27
2019-01-21T08:45:09.257Z,3.27
2019-01-21T08:48:09.314Z,3.28
2019-01-21T08:51:26.912Z,3.27
2019-01-21T08:54:16.734Z,3.29
2019-01-21T08:57:25.890Z,3.29
2019-01-21T09:00:15.130Z,3.31
2019-01-21T09:03:22.565Z,3.34
2019-01-21T09:06:36.174Z,3.35
2019-01-21T09:09:46.589Z,3.37
2019-01-21T09:12:34.740Z,3.40
2019-01-21T09:15:27.718Z,3.42
2019-01-21T09:18:38.133Z,3.45
2019-01-21T09:21:47.719Z,3.47
2019-01-21T09:24:58.038Z,3.50
2019-01-21T09:28:04.687Z,3.56
2019-01-21T09:30:58.468Z,3.60
2019-01-21T09:34:14.790Z,3.66
2019-01-21T09:37:18.125Z,3.71
2019-01-21T09:40:17.891Z,3.77
2019-01-21T09:43:13.610Z,3.85
2019-01-21T09:46:14.562Z,3.91
2019-01-21T09:48:42.269Z,3.97
2019-01-21T09:51:14.834Z,4.03
2019-01-21T09:53:46.766Z,4.09
2019-01-21T09:56:16.159Z,4.16
2019-01-21T09:58:46.532Z,4.22
2019-01-21T10:01:17.604Z,4.29
2019-01-21T10:03:47.351Z,4.36
2019-01-21T10:06:18.634Z,4.44
2019-01-21T10:09:38.131Z,4.52
2019-01-21T10:13:00.444Z,4.60
2019-01-21T10:16:19.949Z,4.71
2019-01-21T10:19:14.442Z,4.83
2019-01-21T10:22:49.338Z,4.93
2019-01-21T10:25:52.428Z,5.01
2019-01-21T10:29:08.390Z,5.10
2019-01-21T10:32:13.541Z,5.18
2019-01-21T10:35:20.960Z,5.24
2019-01-21T10:38:26.104Z,5.29
2019-01-21T10:41:33.518Z,5.35
2019-01-21T10:44:37.040Z,5.41
2019-01-21T10:47:32.170Z,5.45
2019-01-21T10:50:47.249Z,5.48
2019-01-21T10:54:15.479Z,5.51
2019-01-21T10:57:10.681Z,5.54
2019-01-21T11:00:20.360Z,5.56
2019-01-21T11:03:13.651Z,5.60
2019-01-21T11:06:18.394Z,5.64
2019-01-21T11:09:14.258Z,5.68
2019-01-21T11:12:18.270Z,5.76
2019-01-21T11:15:12.531Z,5.82
2019-01-21T11:17:54.034Z,5.89
2019-01-21T11:20:53.192Z,5.98
2019-01-21T11:23:51.203Z,6.05
2019-01-21T11:26:48.091Z,6.13
2019-01-21T11:29:48.191Z,6.19
2019-01-21T11:32:42.100Z,6.25
2019-01-21T11:35:45.543Z,6.31
2019-01-21T11:38:51.762Z,6.36
2019-01-21T11:42:01.241Z,6.43
2019-01-21T11:44:56.334Z,6.48
2019-01-21T11:47:55.940Z,6.52
2019-01-21T11:50:51.620Z,6.55
2019-01-21T11:53:45.972Z,6.58
2019-01-21T11:56:44.701Z,6.59
2019-01-21T12:00:07.462Z,6.59
2019-01-21T12:03:07.499Z,6.61
2019-01-21T12:05:57.717Z,6.58
2019-01-21T12:09:20.596Z,6.57
2019-01-21T12:12:00.915Z,6.57
2019-01-21T12:14:59.543Z,6.57
2019-01-21T12:18:21.373Z,6.58
2019-01-21T12:21:50.042Z,6.59
2019-01-21T12:24:35.707Z,6.58
2019-01-21T12:27:40.478Z,6.62
2019-01-21T12:30:56.851Z,6.67
2019-01-21T12:34:04.265Z,6.72
2019-01-21T12:37:01.812Z,6.78
2019-01-21T12:40:14.696Z,6.86
2019-01-21T12:43:23.849Z,6.94
2019-01-21T12:46:16.129Z,7.02
2019-01-21T12:49:35.367Z,7.09
2019-01-21T12:52:24.799Z,7.16
2019-01-21T12:55:54.010Z,7.18
2019-01-21T12:58:47.774Z,7.20
2019-01-21T13:01:47.956Z,7.20
2019-01-21T13:05:01.046Z,7.22
2019-01-21T13:08:10.162Z,7.20
2019-01-21T13:11:16.503Z,7.20
2019-01-21T13:14:09.482Z,7.19
2019-01-21T13:17:16.936Z,7.22
2019-01-21T13:20:09.630Z,7.25
2019-01-21T13:23:19.417Z,7.29
2019-01-21T13:26:28.725Z,7.28
2019-01-21T13:29:10.499Z,7.29
2019-01-21T13:32:02.455Z,7.31
2019-01-21T13:35:24.607Z,7.33
2019-01-21T13:38:37.947Z,7.36
2019-01-21T13:41:43.489Z,7.38
2019-01-21T13:44:38.331Z,7.41
2019-01-21T13:47:37.770Z,7.43
2019-01-21T13:50:46.580Z,7.45
2019-01-21T13:54:12.097Z,7.48
2019-01-21T13:57:18.114Z,7.51
2019-01-21T14:00:42.121Z,7.58
2019-01-21T14:04:20.042Z,7.68
2019-01-21T14:07:30.036Z,7.78
2019-01-21T14:10:42.204Z,7.81
2019-01-21T14:13:48.412Z,7.82
2019-01-21T14:16:43.347Z,7.77
2019-01-21T14:19:53.735Z,7.73
2019-01-21T14:22:52.885Z,7.68
2019-01-21T14:26:08.564Z,7.64
2019-01-21T14:29:30.316Z,7.61
2019-01-21T14:32:38.259Z,7.57
2019-01-21T14:35:51.483Z,7.51
2019-01-21T14:39:00.266Z,7.47
2019-01-21T14:41:50.714Z,7.43
2019-01-21T14:44:59.835Z,7.40
2019-01-21T14:48:28.378Z,7.36
2019-01-21T14:51:28.589Z,7.34
2019-01-21T14:54:27.614Z,7.32
2019-01-21T14:57:24.045Z,7.32
2019-01-21T15:00:52.431Z,7.30
2019-01-21T15:03:52.653Z,7.28
2019-01-21T15:07:03.924Z,7.25
2019-01-21T15:10:09.980Z,7.23
2019-01-21T15:13:23.337Z,7.18
2019-01-21T15:16:34.722Z,7.15
2019-01-21T15:19:47.442Z,7.13
2019-01-21T15:23:03.686Z,7.10
2019-01-21T15:25:58.275Z,7.07
2019-01-21T15:29:01.979Z,7.05
2019-01-21T15:32:06.958Z,7.04
2019-01-21T15:35:44.605Z,7.04
2019-01-21T15:38:48.995Z,7.04
2019-01-21T15:41:53.650Z,7.03
2019-01-21T15:45:11.175Z,7.04
2019-01-21T15:48:09.489Z,7.04
2019-01-21T15:51:05.188Z,7.04
2019-01-21T15:54:07.009Z,7.02
2019-01-21T15:57:09.031Z,7.02
2019-01-21T16:00:10.971Z,7.00
2019-01-21T16:03:07.538Z,6.99
2019-01-21T16:06:10.179Z,6.98
2019-01-21T16:08:48.451Z,6.99
2019-01-21T16:11:53.618Z,6.98
2019-01-21T16:14:50.948Z,6.98
2019-01-21T16:17:35.438Z,6.97
2019-01-21T16:20:15.413Z,6.96
2019-01-21T16:23:22.548Z,6.95
2019-01-21T16:26:20.977Z,6.95
2019-01-21T16:29:25.292Z,6.94
2019-01-21T16:32:21.066Z,6.94
2019-01-21T16:35:13.681Z,6.94
2019-01-21T16:37:54.809Z,6.94
2019-01-21T16:41:06.820Z,6.94
2019-01-21T16:43:36.249Z,6.93
2019-01-21T16:46:05.609Z,6.92
2019-01-21T16:48:36.437Z,6.93
2019-01-21T16:51:05.872Z,6.91
2019-01-21T16:53:35.255Z,6.92
2019-01-21T16:56:05.001Z,6.92
2019-01-21T16:58:34.375Z,6.93
2019-01-21T17:01:03.771Z,6.93
2019-01-21T17:03:33.123Z,6.93
2019-01-21T17:06:02.494Z,6.93
2019-01-21T17:08:31.846Z,6.94
2019-01-21T17:11:01.224Z,6.93
2019-01-21T17:13:30.625Z,6.93
2019-01-21T17:16:00.009Z,6.93
2019-01-21T17:18:29.348Z,6.91
2019-01-21T17:20:58.706Z,6.91
2019-01-21T17:23:28.110Z,6.90
2019-01-21T17:25:57.455Z,6.89
2019-01-21T17:28:26.841Z,6.86
2019-01-21T17:30:56.179Z,6.84
2019-01-21T17:33:27.901Z,6.82
2019-01-21T17:35:57.273Z,6.80
2019-01-21T17:38:26.608Z,6.78
2019-01-21T17:40:58.280Z,6.77
2019-01-21T17:43:27.649Z,6.75
2019-01-21T17:45:57.062Z,6.74
2019-01-21T17:48:26.435Z,6.72
2019-01-21T17:50:55.814Z,6.69
2019-01-21T17:53:25.171Z,6.67
2019-01-21T17:55:54.532Z,6.65
2019-01-21T17:58:23.871Z,6.63
2019-01-21T18:00:53.247Z,6.63
2019-01-21T18:03:22.630Z,6.63
2019-01-21T18:05:52.261Z,6.61
2019-01-21T18:08:21.588Z,6.59
2019-01-21T18:10:50.983Z,6.58
2019-01-21T18:13:20.335Z,6.56
2019-01-21T18:15:49.684Z,6.53
2019-01-21T18:18:19.054Z,6.52
2019-01-21T18:20:48.417Z,6.51
2019-01-21T18:23:17.759Z,6.51
2019-01-21T18:25:47.137Z,6.51
2019-01-21T18:28:16.473Z,6.51
2019-01-21T18:30:45.905Z,6.52
2019-01-21T18:33:15.302Z,6.52
2019-01-21T18:35:44.665Z,6.53
2019-01-21T18:38:14.054Z,6.53
2019-01-21T18:40:43.384Z,6.53
2019-01-21T18:43:12.759Z,6.53
2019-01-21T18:45:42.270Z,6.53
2019-01-21T18:48:11.744Z,6.54
2019-01-21T18:50:41.201Z,6.54
2019-01-21T18:53:10.609Z,6.54
2019-01-21T18:55:40.011Z,6.56
2019-01-21T18:58:09.432Z,6.55
2019-01-21T19:00:38.818Z,6.55
2019-01-21T19:03:08.271Z,6.55
2019-01-21T19:05:37.709Z,6.55
2019-01-21T19:08:07.111Z,6.55
2019-01-21T19:10:36.527Z,6.55
2019-01-21T19:13:05.979Z,6.55
2019-01-21T19:15:35.347Z,6.55
2019-01-21T19:18:04.946Z,6.54
2019-01-21T19:20:34.331Z,6.55
2019-01-21T19:23:03.710Z,6.54
2019-01-21T19:25:33.051Z,6.54
2019-01-21T19:28:04.532Z,6.54
2019-01-21T19:30:33.961Z,6.55
2019-01-21T19:33:03.358Z,6.57
2019-01-21T19:35:37.328Z,6.55
2019-01-21T19:38:06.799Z,6.55
2019-01-21T19:40:36.152Z,6.55
2019-01-21T19:43:05.611Z,6.55
2019-01-21T19:45:37.842Z,6.55
2019-01-21T19:48:07.192Z,6.54
2019-01-21T19:50:36.540Z,6.54
2019-01-21T19:53:05.932Z,6.55
2019-01-21T19:55:40.580Z,6.56
2019-01-21T19:58:10.920Z,6.57
2019-01-21T20:00:40.268Z,6.57
2019-01-21T20:03:09.636Z,6.57
2019-01-21T20:05:38.989Z,6.58
2019-01-21T20:08:08.463Z,6.58
2019-01-21T20:10:37.812Z,6.59
2019-01-21T20:13:07.444Z,6.60
2019-01-21T20:15:38.221Z,6.62
2019-01-21T20:18:07.949Z,6.61
2019-01-21T20:20:39.569Z,6.62
2019-01-21T20:23:09.151Z,6.63
2019-01-21T20:25:38.604Z,6.64
2019-01-21T20:28:08.051Z,6.64
2019-01-21T20:30:37.450Z,6.65
2019-01-21T20:33:07.032Z,6.66
2019-01-21T20:35:36.398Z,6.67
2019-01-21T20:38:05.870Z,6.67
2019-01-21T20:40:35.239Z,6.68
2019-01-21T20:43:04.712Z,6.68
2019-01-21T20:45:34.139Z,6.68
2019-01-21T20:48:03.627Z,6.69
2019-01-21T20:50:33.353Z,6.68
2019-01-21T20:53:03.124Z,6.69
2019-01-21T20:55:32.540Z,6.69
2019-01-21T20:58:02.026Z,6.69
2019-01-21T21:00:31.678Z,6.69
2019-01-21T21:03:01.140Z,6.69
2019-01-21T21:05:30.711Z,6.70
2019-01-21T21:08:00.233Z,6.69
2019-01-21T21:10:29.703Z,6.70
2019-01-21T21:12:59.189Z,6.70
2019-01-21T21:15:30.955Z,6.70
2019-01-21T21:18:00.412Z,6.70
2019-01-21T21:20:29.852Z,6.70
2019-01-21T21:22:59.309Z,6.70
2019-01-21T21:25:28.745Z,6.69
2019-01-21T21:27:58.175Z,6.69
2019-01-21T21:30:29.817Z,6.68
2019-01-21T21:32:59.389Z,6.68
2019-01-21T21:35:28.818Z,6.68
2019-01-21T21:37:58.402Z,6.67
2019-01-21T21:40:27.857Z,6.67
2019-01-21T21:42:58.256Z,6.66
2019-01-21T21:45:29.656Z,6.67
2019-01-21T21:48:01.055Z,6.66
2019-01-21T21:50:33.899Z,6.57
2019-01-21T21:53:03.266Z,6.51
2019-01-21T21:55:32.747Z,6.48
2019-01-21T21:58:02.211Z,6.47
2019-01-21T22:00:31.686Z,6.47
2019-01-21T22:03:01.019Z,6.43
2019-01-21T22:05:30.416Z,6.37
2019-01-21T22:07:59.785Z,6.28
2019-01-21T22:10:29.968Z,6.19
2019-01-21T22:12:59.332Z,6.13
2019-01-21T22:15:28.936Z,6.03
2019-01-21T22:17:58.396Z,5.92
2019-01-21T22:20:27.779Z,5.84
2019-01-21T22:22:57.136Z,5.77
2019-01-21T22:25:26.615Z,5.74
2019-01-21T22:27:55.946Z,5.71
2019-01-21T22:30:27.135Z,5.71
2019-01-21T22:32:56.486Z,5.71
2019-01-21T22:35:25.982Z,5.72
2019-01-21T22:37:55.325Z,5.74
2019-01-21T22:40:24.971Z,5.76
2019-01-21T22:42:54.350Z,5.77
2019-01-21T22:45:23.868Z,5.77
2019-01-21T22:47:53.223Z,5.77
2019-01-21T22:50:22.759Z,5.78
2019-01-21T22:52:52.099Z,5.76
2019-01-21T22:55:21.482Z,5.75
2019-01-21T22:57:50.818Z,5.75
2019-01-21T23:00:59.469Z,5.74
2019-01-21T23:03:29.941Z,5.73
2019-01-21T23:05:59.324Z,5.74
2019-01-21T23:08:28.666Z,5.75
2019-01-21T23:10:58.034Z,5.75
2019-01-21T23:13:27.383Z,5.76
2019-01-21T23:15:56.773Z,5.77
2019-01-21T23:18:26.162Z,5.77
2019-01-21T23:20:55.535Z,5.78
2019-01-21T23:23:24.882Z,5.77
2019-01-21T23:25:54.281Z,5.76
2019-01-21T23:28:23.670Z,5.77
2019-01-21T23:30:53.032Z,5.77
2019-01-21T23:33:22.580Z,5.76
2019-01-21T23:35:51.975Z,5.77
2019-01-21T23:38:21.312Z,5.80
2019-01-21T23:40:50.692Z,5.81
2019-01-21T23:43:20.090Z,5.84
2019-01-21T23:45:49.702Z,5.84
2019-01-21T23:48:19.079Z,5.89
2019-01-21T23:50:48.458Z,5.91
2019-01-21T23:53:17.818Z,5.92
2019-01-21T23:55:47.154Z,5.92
2019-01-21T23:58:16.533Z,5.93
